sensor_id;sensor_type;location;lat;lon;timestamp;P1;durP1;ratioP1;P2;durP2;ratioP2
1775;SDS011;885;42.626;23.200;2023-07-20T00:02:23;9.53;;;3.60;;
1775;SDS011;885;42.626;23.200;2023-07-20T00:04:50;5.17;;;2.70;;
1775;SDS011;885;42.626;23.200;2023-07-20T00:07:19;4.30;;;2.90;;
1775;SDS011;885;42.626;23.200;2023-07-20T00:09:45;4.07;;;2.77;;
1775;SDS011;885;42.626;23.200;2023-07-20T00:12:13;5.43;;;2.87;;
1775;SDS011;885;42.626;23.200;2023-07-20T00:14:40;5.57;;;2.83;;
1775;SDS011;885;42.626;23.200;2023-07-20T00:17:09;5.53;;;2.87;;
1775;SDS011;885;42.626;23.200;2023-07-20T00:19:37;5.73;;;3.73;;
1775;SDS011;885;42.626;23.200;2023-07-20T00:22:04;6.43;;;3.83;;
1775;SDS011;885;42.626;23.200;2023-07-20T00:24:32;7.47;;;3.60;;
1775;SDS011;885;42.626;23.200;2023-07-20T00:26:59;6.53;;;3.30;;
1775;SDS011;885;42.626;23.200;2023-07-20T00:29:27;6.00;;;2.83;;
1775;SDS011;885;42.626;23.200;2023-07-20T00:31:54;3.90;;;2.80;;
1775;SDS011;885;42.626;23.200;2023-07-20T00:34:21;6.77;;;2.83;;
1775;SDS011;885;42.626;23.200;2023-07-20T00:36:48;5.73;;;2.90;;
1775;SDS011;885;42.626;23.200;2023-07-20T00:39:15;4.07;;;2.43;;
1775;SDS011;885;42.626;23.200;2023-07-20T00:41:43;4.70;;;3.63;;
1775;SDS011;885;42.626;23.200;2023-07-20T00:44:10;4.93;;;3.20;;
1775;SDS011;885;42.626;23.200;2023-07-20T00:46:37;7.27;;;2.80;;
1775;SDS011;885;42.626;23.200;2023-07-20T00:49:04;4.13;;;3.20;;
1775;SDS011;885;42.626;23.200;2023-07-20T00:51:31;7.40;;;2.80;;
1775;SDS011;885;42.626;23.200;2023-07-20T00:53:58;7.33;;;3.23;;
1775;SDS011;885;42.626;23.200;2023-07-20T00:56:25;7.43;;;3.50;;
1775;SDS011;885;42.626;23.200;2023-07-20T00:58:53;7.00;;;3.93;;
1775;SDS011;885;42.626;23.200;2023-07-20T01:01:20;4.93;;;2.50;;
1775;SDS011;885;42.626;23.200;2023-07-20T01:03:48;6.67;;;3.30;;
1775;SDS011;885;42.626;23.200;2023-07-20T01:06:18;6.07;;;3.40;;
1775;SDS011;885;42.626;23.200;2023-07-20T01:09:00;8.27;;;3.80;;
1775;SDS011;885;42.626;23.200;2023-07-20T01:11:36;4.93;;;3.00;;
1775;SDS011;885;42.626;23.200;2023-07-20T01:14:10;6.07;;;3.17;;
1775;SDS011;885;42.626;23.200;2023-07-20T01:16:38;6.10;;;3.43;;
1775;SDS011;885;42.626;23.200;2023-07-20T01:19:05;4.27;;;3.00;;
1775;SDS011;885;42.626;23.200;2023-07-20T01:21:33;5.23;;;2.73;;
1775;SDS011;885;42.626;23.200;2023-07-20T01:24:19;7.37;;;4.10;;
1775;SDS011;885;42.626;23.200;2023-07-20T01:27:10;7.73;;;3.10;;
1775;SDS011;885;42.626;23.200;2023-07-20T01:29:54;5.47;;;3.97;;
1775;SDS011;885;42.626;23.200;2023-07-20T01:32:33;4.10;;;3.07;;
1775;SDS011;885;42.626;23.200;2023-07-20T01:35:01;4.90;;;3.07;;
1775;SDS011;885;42.626;23.200;2023-07-20T01:37:30;7.30;;;3.47;;
1775;SDS011;885;42.626;23.200;2023-07-20T01:39:59;7.10;;;3.40;;
1775;SDS011;885;42.626;23.200;2023-07-20T01:42:26;5.70;;;3.70;;
1775;SDS011;885;42.626;23.200;2023-07-20T01:44:53;7.47;;;4.10;;
1775;SDS011;885;42.626;23.200;2023-07-20T01:47:20;8.90;;;4.13;;
1775;SDS011;885;42.626;23.200;2023-07-20T01:49:48;5.00;;;3.57;;
1775;SDS011;885;42.626;23.200;2023-07-20T01:52:14;6.60;;;3.77;;
1775;SDS011;885;42.626;23.200;2023-07-20T01:54:41;8.50;;;4.20;;
1775;SDS011;885;42.626;23.200;2023-07-20T01:57:08;5.80;;;3.80;;
1775;SDS011;885;42.626;23.200;2023-07-20T01:59:35;5.50;;;3.97;;
1775;SDS011;885;42.626;23.200;2023-07-20T02:02:01;5.77;;;3.80;;
1775;SDS011;885;42.626;23.200;2023-07-20T02:04:28;4.60;;;3.60;;
1775;SDS011;885;42.626;23.200;2023-07-20T02:06:56;5.27;;;3.90;;
1775;SDS011;885;42.626;23.200;2023-07-20T02:09:23;9.37;;;3.83;;
1775;SDS011;885;42.626;23.200;2023-07-20T02:11:50;7.97;;;4.10;;
1775;SDS011;885;42.626;23.200;2023-07-20T02:14:16;6.10;;;4.60;;
1775;SDS011;885;42.626;23.200;2023-07-20T02:16:43;8.47;;;4.33;;
1775;SDS011;885;42.626;23.200;2023-07-20T02:19:10;4.93;;;4.20;;
1775;SDS011;885;42.626;23.200;2023-07-20T02:21:37;3.80;;;3.30;;
1775;SDS011;885;42.626;23.200;2023-07-20T02:24:05;4.47;;;3.73;;
1775;SDS011;885;42.626;23.200;2023-07-20T02:26:32;5.87;;;4.77;;
1775;SDS011;885;42.626;23.200;2023-07-20T02:28:59;3.83;;;3.43;;
1775;SDS011;885;42.626;23.200;2023-07-20T02:31:25;4.10;;;3.60;;
1775;SDS011;885;42.626;23.200;2023-07-20T02:33:52;6.23;;;4.03;;
1775;SDS011;885;42.626;23.200;2023-07-20T02:36:19;6.50;;;4.13;;
1775;SDS011;885;42.626;23.200;2023-07-20T02:38:45;4.50;;;3.90;;
1775;SDS011;885;42.626;23.200;2023-07-20T02:41:14;8.20;;;4.93;;
1775;SDS011;885;42.626;23.200;2023-07-20T02:43:40;4.70;;;3.93;;
1775;SDS011;885;42.626;23.200;2023-07-20T02:46:07;6.23;;;4.47;;
1775;SDS011;885;42.626;23.200;2023-07-20T02:48:34;7.20;;;3.60;;
1775;SDS011;885;42.626;23.200;2023-07-20T02:51:01;6.07;;;3.40;;
1775;SDS011;885;42.626;23.200;2023-07-20T02:53:27;5.90;;;3.57;;
1775;SDS011;885;42.626;23.200;2023-07-20T02:55:54;5.97;;;3.87;;
1775;SDS011;885;42.626;23.200;2023-07-20T02:58:22;5.03;;;4.20;;
1775;SDS011;885;42.626;23.200;2023-07-20T03:00:49;7.20;;;3.93;;
1775;SDS011;885;42.626;23.200;2023-07-20T03:03:15;6.17;;;3.77;;
1775;SDS011;885;42.626;23.200;2023-07-20T03:05:42;7.47;;;4.10;;
1775;SDS011;885;42.626;23.200;2023-07-20T03:08:09;6.30;;;4.10;;
1775;SDS011;885;42.626;23.200;2023-07-20T03:10:38;7.27;;;4.27;;
1775;SDS011;885;42.626;23.200;2023-07-20T03:13:05;8.57;;;4.00;;
1775;SDS011;885;42.626;23.200;2023-07-20T03:15:34;3.50;;;3.00;;
1775;SDS011;885;42.626;23.200;2023-07-20T03:18:01;6.50;;;4.30;;
1775;SDS011;885;42.626;23.200;2023-07-20T03:20:28;6.47;;;3.67;;
1775;SDS011;885;42.626;23.200;2023-07-20T03:22:55;6.87;;;3.33;;
1775;SDS011;885;42.626;23.200;2023-07-20T03:25:22;5.23;;;3.43;;
1775;SDS011;885;42.626;23.200;2023-07-20T03:27:48;5.43;;;3.67;;
1775;SDS011;885;42.626;23.200;2023-07-20T03:30:15;8.83;;;3.53;;
1775;SDS011;885;42.626;23.200;2023-07-20T03:32:43;6.63;;;3.57;;
1775;SDS011;885;42.626;23.200;2023-07-20T03:35:10;6.07;;;4.07;;
1775;SDS011;885;42.626;23.200;2023-07-20T03:37:37;5.57;;;3.87;;
1775;SDS011;885;42.626;23.200;2023-07-20T03:40:05;5.93;;;3.60;;
1775;SDS011;885;42.626;23.200;2023-07-20T03:42:44;7.77;;;3.70;;
1775;SDS011;885;42.626;23.200;2023-07-20T03:45:11;7.40;;;3.23;;
1775;SDS011;885;42.626;23.200;2023-07-20T03:47:38;6.07;;;3.10;;
1775;SDS011;885;42.626;23.200;2023-07-20T03:50:07;6.57;;;2.80;;
1775;SDS011;885;42.626;23.200;2023-07-20T03:52:35;6.80;;;3.67;;
1775;SDS011;885;42.626;23.200;2023-07-20T03:55:02;5.53;;;3.43;;
1775;SDS011;885;42.626;23.200;2023-07-20T03:57:29;5.67;;;2.97;;
1775;SDS011;885;42.626;23.200;2023-07-20T03:59:58;4.57;;;3.60;;
1775;SDS011;885;42.626;23.200;2023-07-20T04:02:25;3.70;;;3.30;;
1775;SDS011;885;42.626;23.200;2023-07-20T04:04:52;5.90;;;3.10;;
1775;SDS011;885;42.626;23.200;2023-07-20T04:07:20;4.43;;;2.80;;
1775;SDS011;885;42.626;23.200;2023-07-20T04:09:46;6.13;;;3.17;;
1775;SDS011;885;42.626;23.200;2023-07-20T04:12:13;5.53;;;3.20;;
1775;SDS011;885;42.626;23.200;2023-07-20T04:14:40;9.70;;;3.70;;
1775;SDS011;885;42.626;23.200;2023-07-20T04:17:07;9.63;;;4.97;;
1775;SDS011;885;42.626;23.200;2023-07-20T04:19:34;4.53;;;2.50;;
1775;SDS011;885;42.626;23.200;2023-07-20T04:22:00;9.63;;;3.57;;
1775;SDS011;885;42.626;23.200;2023-07-20T04:24:29;4.03;;;2.80;;
1775;SDS011;885;42.626;23.200;2023-07-20T04:26:56;5.87;;;3.50;;
1775;SDS011;885;42.626;23.200;2023-07-20T04:29:22;5.93;;;2.97;;
1775;SDS011;885;42.626;23.200;2023-07-20T04:31:49;4.60;;;3.30;;
1775;SDS011;885;42.626;23.200;2023-07-20T04:34:16;5.90;;;3.30;;
1775;SDS011;885;42.626;23.200;2023-07-20T04:36:43;6.60;;;3.50;;
1775;SDS011;885;42.626;23.200;2023-07-20T04:39:10;4.00;;;3.20;;
1775;SDS011;885;42.626;23.200;2023-07-20T04:41:38;6.67;;;3.10;;
1775;SDS011;885;42.626;23.200;2023-07-20T04:44:04;6.93;;;3.20;;
1775;SDS011;885;42.626;23.200;2023-07-20T04:46:31;10.80;;;3.10;;
1775;SDS011;885;42.626;23.200;2023-07-20T04:48:58;5.90;;;3.63;;
1775;SDS011;885;42.626;23.200;2023-07-20T04:51:25;8.93;;;3.90;;
1775;SDS011;885;42.626;23.200;2023-07-20T04:53:51;6.80;;;4.07;;
1775;SDS011;885;42.626;23.200;2023-07-20T04:56:18;8.60;;;4.30;;
1775;SDS011;885;42.626;23.200;2023-07-20T04:58:46;7.93;;;3.33;;
1775;SDS011;885;42.626;23.200;2023-07-20T05:01:13;8.33;;;4.10;;
1775;SDS011;885;42.626;23.200;2023-07-20T05:03:39;6.47;;;3.60;;
1775;SDS011;885;42.626;23.200;2023-07-20T05:06:06;4.00;;;3.00;;
1775;SDS011;885;42.626;23.200;2023-07-20T05:08:33;5.83;;;3.90;;
1775;SDS011;885;42.626;23.200;2023-07-20T05:11:00;6.60;;;3.67;;
1775;SDS011;885;42.626;23.200;2023-07-20T05:13:27;5.43;;;3.13;;
1775;SDS011;885;42.626;23.200;2023-07-20T05:15:55;8.10;;;3.47;;
1775;SDS011;885;42.626;23.200;2023-07-20T05:18:22;6.60;;;3.20;;
1775;SDS011;885;42.626;23.200;2023-07-20T05:20:49;4.73;;;3.10;;
1775;SDS011;885;42.626;23.200;2023-07-20T05:23:17;6.67;;;4.13;;
1775;SDS011;885;42.626;23.200;2023-07-20T05:25:44;8.43;;;3.83;;
1775;SDS011;885;42.626;23.200;2023-07-20T05:28:11;10.17;;;4.27;;
1775;SDS011;885;42.626;23.200;2023-07-20T05:30:38;6.90;;;3.77;;
1775;SDS011;885;42.626;23.200;2023-07-20T05:33:07;8.23;;;4.50;;
1775;SDS011;885;42.626;23.200;2023-07-20T05:35:35;6.00;;;4.00;;
1775;SDS011;885;42.626;23.200;2023-07-20T05:38:02;7.00;;;3.90;;
1775;SDS011;885;42.626;23.200;2023-07-20T05:40:30;6.00;;;5.20;;
1775;SDS011;885;42.626;23.200;2023-07-20T05:42:57;8.27;;;4.60;;
1775;SDS011;885;42.626;23.200;2023-07-20T05:45:25;8.50;;;4.57;;
1775;SDS011;885;42.626;23.200;2023-07-20T05:47:52;7.77;;;4.93;;
1775;SDS011;885;42.626;23.200;2023-07-20T05:50:20;5.80;;;3.90;;
1775;SDS011;885;42.626;23.200;2023-07-20T05:52:47;7.50;;;3.97;;
1775;SDS011;885;42.626;23.200;2023-07-20T05:55:14;12.07;;;5.00;;
1775;SDS011;885;42.626;23.200;2023-07-20T05:57:41;9.23;;;4.70;;
1775;SDS011;885;42.626;23.200;2023-07-20T06:00:09;7.93;;;3.77;;
1775;SDS011;885;42.626;23.200;2023-07-20T06:02:37;7.63;;;4.73;;
1775;SDS011;885;42.626;23.200;2023-07-20T06:05:04;9.00;;;4.23;;
1775;SDS011;885;42.626;23.200;2023-07-20T06:07:35;7.40;;;4.03;;
1775;SDS011;885;42.626;23.200;2023-07-20T06:10:03;8.33;;;4.20;;
1775;SDS011;885;42.626;23.200;2023-07-20T06:12:30;9.93;;;4.97;;
1775;SDS011;885;42.626;23.200;2023-07-20T06:14:57;6.93;;;4.17;;
1775;SDS011;885;42.626;23.200;2023-07-20T06:17:24;5.33;;;3.80;;
1775;SDS011;885;42.626;23.200;2023-07-20T06:19:51;4.93;;;3.70;;
1775;SDS011;885;42.626;23.200;2023-07-20T07:14:02;10.57;;;4.80;;
1775;SDS011;885;42.626;23.200;2023-07-20T07:16:29;9.83;;;5.37;;
1775;SDS011;885;42.626;23.200;2023-07-20T07:18:55;6.63;;;5.83;;
1775;SDS011;885;42.626;23.200;2023-07-20T07:21:22;9.50;;;6.07;;
1775;SDS011;885;42.626;23.200;2023-07-20T07:23:50;5.73;;;4.80;;
1775;SDS011;885;42.626;23.200;2023-07-20T07:26:18;7.23;;;5.40;;
1775;SDS011;885;42.626;23.200;2023-07-20T07:28:45;8.47;;;5.40;;
1775;SDS011;885;42.626;23.200;2023-07-20T07:31:13;7.23;;;5.40;;
1775;SDS011;885;42.626;23.200;2023-07-20T07:33:40;6.57;;;5.33;;
1775;SDS011;885;42.626;23.200;2023-07-20T07:36:07;10.20;;;5.60;;
1775;SDS011;885;42.626;23.200;2023-07-20T07:38:33;8.20;;;5.90;;
1775;SDS011;885;42.626;23.200;2023-07-20T07:41:00;7.47;;;5.20;;
1775;SDS011;885;42.626;23.200;2023-07-20T07:43:27;9.30;;;6.10;;
1775;SDS011;885;42.626;23.200;2023-07-20T07:45:54;8.70;;;5.57;;
1775;SDS011;885;42.626;23.200;2023-07-20T07:48:22;10.80;;;5.90;;
1775;SDS011;885;42.626;23.200;2023-07-20T07:50:50;8.70;;;5.90;;
1775;SDS011;885;42.626;23.200;2023-07-20T07:53:17;13.80;;;7.20;;
1775;SDS011;885;42.626;23.200;2023-07-20T07:55:45;8.60;;;5.07;;
1775;SDS011;885;42.626;23.200;2023-07-20T07:58:13;7.40;;;5.90;;
1775;SDS011;885;42.626;23.200;2023-07-20T08:00:40;9.40;;;6.07;;
1775;SDS011;885;42.626;23.200;2023-07-20T08:03:08;12.07;;;5.63;;
1775;SDS011;885;42.626;23.200;2023-07-20T08:05:36;12.43;;;8.37;;
1775;SDS011;885;42.626;23.200;2023-07-20T08:08:03;8.47;;;6.10;;
1775;SDS011;885;42.626;23.200;2023-07-20T08:10:30;8.43;;;5.40;;
1775;SDS011;885;42.626;23.200;2023-07-20T08:12:57;12.97;;;5.37;;
1775;SDS011;885;42.626;23.200;2023-07-20T08:15:24;6.10;;;4.53;;
1775;SDS011;885;42.626;23.200;2023-07-20T08:17:50;7.63;;;4.50;;
1775;SDS011;885;42.626;23.200;2023-07-20T08:20:17;11.07;;;4.20;;
1775;SDS011;885;42.626;23.200;2023-07-20T08:22:45;5.53;;;4.20;;
1775;SDS011;885;42.626;23.200;2023-07-20T08:25:12;5.13;;;4.10;;
1775;SDS011;885;42.626;23.200;2023-07-20T08:27:39;6.37;;;3.80;;
1775;SDS011;885;42.626;23.200;2023-07-20T08:30:06;7.03;;;4.27;;
1775;SDS011;885;42.626;23.200;2023-07-20T08:32:34;7.20;;;4.20;;
1775;SDS011;885;42.626;23.200;2023-07-20T08:35:01;4.30;;;3.23;;
1775;SDS011;885;42.626;23.200;2023-07-20T08:37:27;6.27;;;3.33;;
1775;SDS011;885;42.626;23.200;2023-07-20T08:39:56;4.40;;;3.40;;
1775;SDS011;885;42.626;23.200;2023-07-20T08:42:22;3.90;;;2.90;;
1775;SDS011;885;42.626;23.200;2023-07-20T08:44:49;6.63;;;2.93;;
1775;SDS011;885;42.626;23.200;2023-07-20T08:47:19;5.50;;;3.30;;
1775;SDS011;885;42.626;23.200;2023-07-20T08:49:47;4.13;;;2.83;;
1775;SDS011;885;42.626;23.200;2023-07-20T08:52:15;6.50;;;3.13;;
1775;SDS011;885;42.626;23.200;2023-07-20T08:54:42;3.97;;;3.23;;
1775;SDS011;885;42.626;23.200;2023-07-20T08:57:10;4.47;;;2.90;;
1775;SDS011;885;42.626;23.200;2023-07-20T08:59:40;6.77;;;2.43;;
1775;SDS011;885;42.626;23.200;2023-07-20T09:02:07;4.20;;;2.87;;
1775;SDS011;885;42.626;23.200;2023-07-20T09:04:40;5.60;;;2.67;;
1775;SDS011;885;42.626;23.200;2023-07-20T09:07:08;6.87;;;3.33;;
1775;SDS011;885;42.626;23.200;2023-07-20T09:09:39;5.90;;;3.10;;
1775;SDS011;885;42.626;23.200;2023-07-20T09:12:14;5.27;;;2.67;;
1775;SDS011;885;42.626;23.200;2023-07-20T09:14:42;6.17;;;2.87;;
1775;SDS011;885;42.626;23.200;2023-07-20T09:17:12;4.90;;;2.50;;
1775;SDS011;885;42.626;23.200;2023-07-20T09:19:39;4.50;;;2.70;;
1775;SDS011;885;42.626;23.200;2023-07-20T09:22:12;3.67;;;3.07;;
1775;SDS011;885;42.626;23.200;2023-07-20T09:24:38;6.37;;;2.70;;
1775;SDS011;885;42.626;23.200;2023-07-20T09:27:06;3.57;;;3.10;;
1775;SDS011;885;42.626;23.200;2023-07-20T09:29:35;5.90;;;2.80;;
1775;SDS011;885;42.626;23.200;2023-07-20T09:32:17;6.50;;;3.23;;
1775;SDS011;885;42.626;23.200;2023-07-20T09:34:45;4.87;;;3.10;;
1775;SDS011;885;42.626;23.200;2023-07-20T09:37:13;4.83;;;3.20;;
1775;SDS011;885;42.626;23.200;2023-07-20T09:39:42;3.87;;;3.23;;
1775;SDS011;885;42.626;23.200;2023-07-20T09:42:10;4.33;;;2.67;;
1775;SDS011;885;42.626;23.200;2023-07-20T09:44:39;5.73;;;2.80;;
1775;SDS011;885;42.626;23.200;2023-07-20T09:47:06;4.73;;;2.60;;
1775;SDS011;885;42.626;23.200;2023-07-20T09:49:37;7.33;;;2.80;;
1775;SDS011;885;42.626;23.200;2023-07-20T09:52:06;5.10;;;3.50;;
1775;SDS011;885;42.626;23.200;2023-07-20T09:54:34;9.93;;;3.73;;
1775;SDS011;885;42.626;23.200;2023-07-20T09:57:03;5.60;;;3.03;;
1775;SDS011;885;42.626;23.200;2023-07-20T09:59:33;8.60;;;3.57;;
1775;SDS011;885;42.626;23.200;2023-07-20T10:02:01;4.87;;;2.67;;
1775;SDS011;885;42.626;23.200;2023-07-20T10:04:37;10.30;;;3.13;;
1775;SDS011;885;42.626;23.200;2023-07-20T10:07:05;5.30;;;2.80;;
1775;SDS011;885;42.626;23.200;2023-07-20T10:09:37;4.53;;;3.17;;
1775;SDS011;885;42.626;23.200;2023-07-20T10:12:06;6.70;;;3.43;;
1775;SDS011;885;42.626;23.200;2023-07-20T10:14:35;4.30;;;2.60;;
1775;SDS011;885;42.626;23.200;2023-07-20T10:17:09;6.50;;;2.47;;
1775;SDS011;885;42.626;23.200;2023-07-20T10:19:41;6.27;;;2.80;;
1775;SDS011;885;42.626;23.200;2023-07-20T10:22:11;5.50;;;2.50;;
1775;SDS011;885;42.626;23.200;2023-07-20T10:24:40;5.07;;;3.00;;
1775;SDS011;885;42.626;23.200;2023-07-20T10:27:10;3.50;;;2.47;;
1775;SDS011;885;42.626;23.200;2023-07-20T10:29:37;6.43;;;3.00;;
1775;SDS011;885;42.626;23.200;2023-07-20T10:32:05;5.23;;;2.57;;
1775;SDS011;885;42.626;23.200;2023-07-20T10:34:35;3.97;;;2.70;;
1775;SDS011;885;42.626;23.200;2023-07-20T10:37:02;5.40;;;2.40;;
1775;SDS011;885;42.626;23.200;2023-07-20T10:39:30;6.83;;;3.07;;
1775;SDS011;885;42.626;23.200;2023-07-20T10:42:01;7.10;;;3.73;;
1775;SDS011;885;42.626;23.200;2023-07-20T10:44:30;7.80;;;4.40;;
1775;SDS011;885;42.626;23.200;2023-07-20T10:47:00;5.90;;;3.47;;
1775;SDS011;885;42.626;23.200;2023-07-20T10:49:28;6.30;;;3.20;;
1775;SDS011;885;42.626;23.200;2023-07-20T10:51:59;4.93;;;3.00;;
1775;SDS011;885;42.626;23.200;2023-07-20T11:00:08;6.00;;;3.90;;
1775;SDS011;885;42.626;23.200;2023-07-20T11:02:43;9.00;;;4.33;;
1775;SDS011;885;42.626;23.200;2023-07-20T11:08:06;8.20;;;3.23;;
1775;SDS011;885;42.626;23.200;2023-07-20T11:10:35;5.17;;;3.63;;
1775;SDS011;885;42.626;23.200;2023-07-20T11:13:21;6.00;;;4.60;;
1775;SDS011;885;42.626;23.200;2023-07-20T11:16:02;7.70;;;4.83;;
1775;SDS011;885;42.626;23.200;2023-07-20T11:18:32;8.20;;;4.40;;
1775;SDS011;885;42.626;23.200;2023-07-20T11:21:04;7.37;;;4.77;;
1775;SDS011;885;42.626;23.200;2023-07-20T11:23:37;7.30;;;4.00;;
1775;SDS011;885;42.626;23.200;2023-07-20T11:26:04;5.70;;;4.10;;
1775;SDS011;885;42.626;23.200;2023-07-20T11:28:32;5.70;;;4.53;;
1775;SDS011;885;42.626;23.200;2023-07-20T11:31:00;6.20;;;4.50;;
1775;SDS011;885;42.626;23.200;2023-07-20T11:33:28;8.30;;;4.80;;
1775;SDS011;885;42.626;23.200;2023-07-20T11:35:55;5.70;;;5.10;;
1775;SDS011;885;42.626;23.200;2023-07-20T11:38:23;6.67;;;4.60;;
1775;SDS011;885;42.626;23.200;2023-07-20T11:40:51;5.80;;;5.23;;
1775;SDS011;885;42.626;23.200;2023-07-20T11:43:18;6.90;;;4.77;;
1775;SDS011;885;42.626;23.200;2023-07-20T11:45:46;9.13;;;4.83;;
1775;SDS011;885;42.626;23.200;2023-07-20T11:48:15;10.60;;;5.10;;
1775;SDS011;885;42.626;23.200;2023-07-20T11:50:44;8.30;;;5.03;;
1775;SDS011;885;42.626;23.200;2023-07-20T11:53:12;7.27;;;5.50;;
1775;SDS011;885;42.626;23.200;2023-07-20T11:55:39;8.20;;;5.30;;
1775;SDS011;885;42.626;23.200;2023-07-20T11:58:08;6.67;;;4.60;;
1775;SDS011;885;42.626;23.200;2023-07-20T12:00:36;6.50;;;4.60;;
1775;SDS011;885;42.626;23.200;2023-07-20T12:03:05;5.33;;;4.70;;
1775;SDS011;885;42.626;23.200;2023-07-20T12:05:33;11.70;;;5.10;;
1775;SDS011;885;42.626;23.200;2023-07-20T12:08:00;9.30;;;5.00;;
1775;SDS011;885;42.626;23.200;2023-07-20T12:10:28;6.93;;;4.87;;
1775;SDS011;885;42.626;23.200;2023-07-20T12:13:00;8.63;;;4.93;;
1775;SDS011;885;42.626;23.200;2023-07-20T12:15:29;11.07;;;5.73;;
1775;SDS011;885;42.626;23.200;2023-07-20T12:17:57;7.60;;;4.20;;
1775;SDS011;885;42.626;23.200;2023-07-20T12:20:26;6.20;;;5.17;;
1775;SDS011;885;42.626;23.200;2023-07-20T12:22:55;4.40;;;3.80;;
1775;SDS011;885;42.626;23.200;2023-07-20T12:25:32;6.17;;;4.10;;
1775;SDS011;885;42.626;23.200;2023-07-20T12:28:00;5.63;;;4.30;;
1775;SDS011;885;42.626;23.200;2023-07-20T12:30:29;8.10;;;4.20;;
1775;SDS011;885;42.626;23.200;2023-07-20T12:32:56;7.23;;;4.80;;
1775;SDS011;885;42.626;23.200;2023-07-20T12:35:23;5.10;;;3.70;;
1775;SDS011;885;42.626;23.200;2023-07-20T12:37:52;4.50;;;3.20;;
1775;SDS011;885;42.626;23.200;2023-07-20T12:40:19;6.10;;;3.57;;
1775;SDS011;885;42.626;23.200;2023-07-20T12:42:46;6.40;;;3.70;;
1775;SDS011;885;42.626;23.200;2023-07-20T12:45:12;4.93;;;3.37;;
1775;SDS011;885;42.626;23.200;2023-07-20T12:47:41;4.63;;;3.20;;
1775;SDS011;885;42.626;23.200;2023-07-20T12:50:09;9.20;;;3.67;;
1775;SDS011;885;42.626;23.200;2023-07-20T12:52:36;5.07;;;3.47;;
1775;SDS011;885;42.626;23.200;2023-07-20T12:55:03;8.97;;;4.37;;
1775;SDS011;885;42.626;23.200;2023-07-20T12:57:31;9.63;;;3.10;;
1775;SDS011;885;42.626;23.200;2023-07-20T12:59:57;7.10;;;3.13;;
1775;SDS011;885;42.626;23.200;2023-07-20T13:02:24;11.30;;;4.90;;
1775;SDS011;885;42.626;23.200;2023-07-20T13:04:52;6.00;;;3.33;;
1775;SDS011;885;42.626;23.200;2023-07-20T13:07:22;6.57;;;3.40;;
1775;SDS011;885;42.626;23.200;2023-07-20T13:09:56;4.40;;;2.73;;
1775;SDS011;885;42.626;23.200;2023-07-20T13:12:25;3.33;;;2.57;;
1775;SDS011;885;42.626;23.200;2023-07-20T13:14:52;9.60;;;4.10;;
1775;SDS011;885;42.626;23.200;2023-07-20T13:17:19;6.17;;;4.33;;
1775;SDS011;885;42.626;23.200;2023-07-20T13:19:45;6.27;;;3.20;;
1775;SDS011;885;42.626;23.200;2023-07-20T13:22:13;7.07;;;4.17;;
1775;SDS011;885;42.626;23.200;2023-07-20T13:24:41;6.80;;;4.47;;
1775;SDS011;885;42.626;23.200;2023-07-20T13:27:08;9.13;;;4.07;;
1775;SDS011;885;42.626;23.200;2023-07-20T13:29:34;4.60;;;4.20;;
1775;SDS011;885;42.626;23.200;2023-07-20T13:32:01;8.07;;;4.23;;
1775;SDS011;885;42.626;23.200;2023-07-20T13:34:29;5.30;;;3.83;;
1775;SDS011;885;42.626;23.200;2023-07-20T13:36:56;9.20;;;4.60;;
1775;SDS011;885;42.626;23.200;2023-07-20T13:39:25;4.70;;;4.10;;
1775;SDS011;885;42.626;23.200;2023-07-20T13:41:53;8.70;;;4.80;;
1775;SDS011;885;42.626;23.200;2023-07-20T13:44:19;7.40;;;4.03;;
1775;SDS011;885;42.626;23.200;2023-07-20T13:46:46;6.60;;;4.70;;
1775;SDS011;885;42.626;23.200;2023-07-20T13:49:13;9.57;;;4.37;;
1775;SDS011;885;42.626;23.200;2023-07-20T13:54:07;6.90;;;4.53;;
1775;SDS011;885;42.626;23.200;2023-07-20T13:56:35;3.77;;;2.90;;
1775;SDS011;885;42.626;23.200;2023-07-20T13:59:02;5.90;;;2.73;;
1775;SDS011;885;42.626;23.200;2023-07-20T14:01:29;3.87;;;2.40;;
1775;SDS011;885;42.626;23.200;2023-07-20T14:03:58;7.70;;;3.73;;
1775;SDS011;885;42.626;23.200;2023-07-20T14:06:25;6.03;;;3.80;;
1775;SDS011;885;42.626;23.200;2023-07-20T14:08:52;4.93;;;3.10;;
1775;SDS011;885;42.626;23.200;2023-07-20T14:11:19;5.87;;;2.70;;
1775;SDS011;885;42.626;23.200;2023-07-20T14:13:47;4.27;;;2.33;;
1775;SDS011;885;42.626;23.200;2023-07-20T14:16:13;3.63;;;2.27;;
1775;SDS011;885;42.626;23.200;2023-07-20T14:18:40;5.47;;;3.50;;
1775;SDS011;885;42.626;23.200;2023-07-20T14:21:07;4.17;;;2.57;;
1775;SDS011;885;42.626;23.200;2023-07-20T14:23:34;4.17;;;2.57;;
1775;SDS011;885;42.626;23.200;2023-07-20T14:26:01;8.87;;;2.30;;
1775;SDS011;885;42.626;23.200;2023-07-20T14:28:30;6.00;;;2.47;;
1775;SDS011;885;42.626;23.200;2023-07-20T14:30:58;4.20;;;2.33;;
1775;SDS011;885;42.626;23.200;2023-07-20T14:33:25;6.17;;;2.97;;
1775;SDS011;885;42.626;23.200;2023-07-20T14:35:52;5.90;;;2.80;;
1775;SDS011;885;42.626;23.200;2023-07-20T14:38:18;6.77;;;2.90;;
1775;SDS011;885;42.626;23.200;2023-07-20T14:40:45;4.70;;;2.40;;
1775;SDS011;885;42.626;23.200;2023-07-20T14:43:12;8.80;;;2.60;;
1775;SDS011;885;42.626;23.200;2023-07-20T14:45:40;3.40;;;2.00;;
1775;SDS011;885;42.626;23.200;2023-07-20T14:48:08;6.30;;;3.50;;
1775;SDS011;885;42.626;23.200;2023-07-20T14:50:34;4.37;;;2.30;;
1775;SDS011;885;42.626;23.200;2023-07-20T14:53:01;6.83;;;3.73;;
1775;SDS011;885;42.626;23.200;2023-07-20T14:55:28;8.63;;;2.40;;
1775;SDS011;885;42.626;23.200;2023-07-20T14:57:55;8.03;;;2.37;;
1775;SDS011;885;42.626;23.200;2023-07-20T15:00:21;6.33;;;2.40;;
1775;SDS011;885;42.626;23.200;2023-07-20T15:02:49;4.90;;;2.20;;
1775;SDS011;885;42.626;23.200;2023-07-20T15:05:21;4.70;;;2.70;;
1775;SDS011;885;42.626;23.200;2023-07-20T15:07:49;3.70;;;2.40;;
1775;SDS011;885;42.626;23.200;2023-07-20T15:10:16;6.57;;;2.87;;
1775;SDS011;885;42.626;23.200;2023-07-20T15:12:43;4.47;;;2.33;;
1775;SDS011;885;42.626;23.200;2023-07-20T15:15:10;3.80;;;2.53;;
1775;SDS011;885;42.626;23.200;2023-07-20T15:17:38;7.27;;;2.40;;
1775;SDS011;885;42.626;23.200;2023-07-20T15:20:08;4.10;;;2.73;;
1775;SDS011;885;42.626;23.200;2023-07-20T15:22:37;6.13;;;2.50;;
1775;SDS011;885;42.626;23.200;2023-07-20T15:25:04;4.60;;;2.60;;
1775;SDS011;885;42.626;23.200;2023-07-20T15:27:37;6.30;;;3.20;;
1775;SDS011;885;42.626;23.200;2023-07-20T15:30:05;6.20;;;2.70;;
1775;SDS011;885;42.626;23.200;2023-07-20T15:32:32;4.00;;;2.40;;
1775;SDS011;885;42.626;23.200;2023-07-20T15:34:59;8.90;;;2.97;;
1775;SDS011;885;42.626;23.200;2023-07-20T15:37:27;7.93;;;2.60;;
1775;SDS011;885;42.626;23.200;2023-07-20T15:39:56;2.90;;;2.13;;
1775;SDS011;885;42.626;23.200;2023-07-20T15:42:22;4.23;;;2.50;;
1775;SDS011;885;42.626;23.200;2023-07-20T15:44:49;6.53;;;2.80;;
1775;SDS011;885;42.626;23.200;2023-07-20T15:47:16;10.40;;;2.63;;
1775;SDS011;885;42.626;23.200;2023-07-20T15:49:43;4.40;;;2.23;;
1775;SDS011;885;42.626;23.200;2023-07-20T15:52:10;6.33;;;2.87;;
1775;SDS011;885;42.626;23.200;2023-07-20T15:54:38;3.90;;;2.50;;
1775;SDS011;885;42.626;23.200;2023-07-20T15:57:07;5.33;;;2.70;;
1775;SDS011;885;42.626;23.200;2023-07-20T15:59:34;6.17;;;2.57;;
1775;SDS011;885;42.626;23.200;2023-07-20T16:02:01;6.40;;;2.63;;
1775;SDS011;885;42.626;23.200;2023-07-20T16:04:29;5.97;;;2.60;;
1775;SDS011;885;42.626;23.200;2023-07-20T16:06:56;4.80;;;2.70;;
1775;SDS011;885;42.626;23.200;2023-07-20T16:09:23;8.80;;;3.20;;
1775;SDS011;885;42.626;23.200;2023-07-20T16:11:50;7.07;;;5.17;;
1775;SDS011;885;42.626;23.200;2023-07-20T16:14:18;5.37;;;2.97;;
1775;SDS011;885;42.626;23.200;2023-07-20T16:16:45;4.53;;;2.97;;
1775;SDS011;885;42.626;23.200;2023-07-20T16:19:11;5.87;;;2.93;;
1775;SDS011;885;42.626;23.200;2023-07-20T16:21:38;7.97;;;3.33;;
1775;SDS011;885;42.626;23.200;2023-07-20T16:24:06;4.63;;;2.60;;